sensor_id;sensor_type;location;lat;lon;timestamp;pressure;altitude;pressure_sealevel;temperature;humidity
18755;BME280;35061;47.664;9.166;2023-02-26T00:01:29;100822.84;;;0.75;81.49
18755;BME280;35061;47.664;9.166;2023-02-26T00:03:59;100823.98;;;0.77;81.72
18755;BME280;35061;47.664;9.166;2023-02-26T00:06:30;100831.18;;;0.82;81.81
18755;BME280;35061;47.664;9.166;2023-02-26T00:08:58;100829.51;;;0.85;81.24
18755;BME280;35061;47.664;9.166;2023-02-26T00:11:26;100826.34;;;0.82;80.69
18755;BME280;35061;47.664;9.166;2023-02-26T00:13:55;100825.16;;;0.80;81.02
18755;BME280;35061;47.664;9.166;2023-02-26T00:16:32;100828.79;;;0.80;80.21
18755;BME280;35061;47.664;9.166;2023-02-26T00:19:04;100835.56;;;0.83;80.39
18755;BME280;35061;47.664;9.166;2023-02-26T00:21:33;100833.14;;;0.85;81.00
18755;BME280;35061;47.664;9.166;2023-02-26T00:24:01;100848.73;;;0.93;81.30
18755;BME280;35061;47.664;9.166;2023-02-26T00:26:30;100850.96;;;1.06;82.49
18755;BME280;35061;47.664;9.166;2023-02-26T00:28:58;100851.62;;;1.17;82.08
18755;BME280;35061;47.664;9.166;2023-02-26T00:31:26;100847.92;;;1.20;81.14
18755;BME280;35061;47.664;9.166;2023-02-26T00:33:56;100847.92;;;1.20;79.33
18755;BME280;35061;47.664;9.166;2023-02-26T00:36:49;100854.43;;;1.17;79.13
18755;BME280;35061;47.664;9.166;2023-02-26T00:42:11;100851.62;;;1.17;79.46
18755;BME280;35061;47.664;9.166;2023-02-26T00:44:39;100847.98;;;1.17;79.33
18755;BME280;35061;47.664;9.166;2023-02-26T00:54:58;100859.30;;;1.13;77.25
18755;BME280;35061;47.664;9.166;2023-02-26T00:57:25;100856.12;;;1.11;77.10
18755;BME280;35061;47.664;9.166;2023-02-26T00:59:53;100858.58;;;1.09;76.46
18755;BME280;35061;47.664;9.166;2023-02-26T01:02:21;100860.61;;;1.08;76.21
18755;BME280;35061;47.664;9.166;2023-02-26T01:04:49;100861.82;;;1.07;75.49
18755;BME280;35061;47.664;9.166;2023-02-26T01:07:20;100854.16;;;1.08;75.61
18755;BME280;35061;47.664;9.166;2023-02-26T01:09:50;100853.77;;;1.06;75.53
18755;BME280;35061;47.664;9.166;2023-02-26T01:12:18;100861.03;;;1.07;75.78
18755;BME280;35061;47.664;9.166;2023-02-26T01:14:46;100851.81;;;1.03;74.81
18755;BME280;35061;47.664;9.166;2023-02-26T01:20:20;100860.64;;;1.05;75.27
18755;BME280;35061;47.664;9.166;2023-02-26T01:22:56;100856.59;;;1.06;73.80
18755;BME280;35061;47.664;9.166;2023-02-26T01:28:03;100854.82;;;0.92;71.99
18755;BME280;35061;47.664;9.166;2023-02-26T01:30:31;100855.28;;;0.87;72.95
18755;BME280;35061;47.664;9.166;2023-02-26T01:33:15;100842.75;;;0.88;73.99
18755;BME280;35061;47.664;9.166;2023-02-26T01:35:52;100841.94;;;0.91;73.97
18755;BME280;35061;47.664;9.166;2023-02-26T01:41:47;100842.72;;;0.91;72.73
18755;BME280;35061;47.664;9.166;2023-02-26T01:44:53;100846.80;;;0.87;72.84
18755;BME280;35061;47.664;9.166;2023-02-26T01:47:32;100856.09;;;0.87;72.61
18755;BME280;35061;47.664;9.166;2023-02-26T01:50:22;100845.63;;;0.84;72.61
18755;BME280;35061;47.664;9.166;2023-02-26T01:53:21;100850.86;;;0.86;72.40
18755;BME280;35061;47.664;9.166;2023-02-26T01:55:55;100849.69;;;0.83;72.57
18755;BME280;35061;47.664;9.166;2023-02-26T01:58:26;100844.42;;;0.85;73.20
18755;BME280;35061;47.664;9.166;2023-02-26T02:00:54;100848.05;;;0.86;73.14
18755;BME280;35061;47.664;9.166;2023-02-26T02:03:23;100850.30;;;0.94;73.05
18755;BME280;35061;47.664;9.166;2023-02-26T02:05:59;100839.02;;;0.94;72.38
18755;BME280;35061;47.664;9.166;2023-02-26T02:08:32;100842.62;;;0.99;73.33
18755;BME280;35061;47.664;9.166;2023-02-26T02:11:03;100849.00;;;1.03;72.34
18755;BME280;35061;47.664;9.166;2023-02-26T02:16:26;100840.27;;;0.93;71.31
18755;BME280;35061;47.664;9.166;2023-02-26T02:24:35;100844.36;;;0.89;71.65
18755;BME280;35061;47.664;9.166;2023-02-26T02:33:15;100846.97;;;0.76;70.93
18755;BME280;35061;47.664;9.166;2023-02-26T02:35:53;100848.67;;;0.69;71.20
18755;BME280;35061;47.664;9.166;2023-02-26T02:38:25;100851.16;;;0.64;72.59
18755;BME280;35061;47.664;9.166;2023-02-26T02:41:03;100856.88;;;0.57;71.17
18755;BME280;35061;47.664;9.166;2023-02-26T02:43:33;100853.64;;;0.58;72.29
18755;BME280;35061;47.664;9.166;2023-02-26T02:46:06;100856.91;;;0.53;71.68
18755;BME280;35061;47.664;9.166;2023-02-26T02:49:06;100856.91;;;0.53;71.79
18755;BME280;35061;47.664;9.166;2023-02-26T02:51:38;100857.73;;;0.53;72.00
18755;BME280;35061;47.664;9.166;2023-02-26T02:54:19;100863.84;;;0.48;72.23
18755;BME280;35061;47.664;9.166;2023-02-26T02:57:00;100856.59;;;0.47;72.36
18755;BME280;35061;47.664;9.166;2023-02-26T03:26:28;100869.70;;;0.30;73.41
18755;BME280;35061;47.664;9.166;2023-02-26T03:31:58;100874.27;;;0.17;73.13
18755;BME280;35061;47.664;9.166;2023-02-26T03:34:42;100869.53;;;0.10;72.62
18755;BME280;35061;47.664;9.166;2023-02-26T03:37:23;100872.84;;;0.01;73.09
18755;BME280;35061;47.664;9.166;2023-02-26T03:39:58;100873.30;;;-0.04;72.90
18755;BME280;35061;47.664;9.166;2023-02-26T03:42:30;100875.35;;;-0.08;72.92
18755;BME280;35061;47.664;9.166;2023-02-26T03:45:12;100874.18;;;-0.11;72.23
18755;BME280;35061;47.664;9.166;2023-02-26T03:47:43;100883.50;;;-0.18;72.04
18755;BME280;35061;47.664;9.166;2023-02-26T03:50:21;100885.95;;;-0.23;71.20
18755;BME280;35061;47.664;9.166;2023-02-26T03:52:51;100884.38;;;-0.28;71.64
18755;BME280;35061;47.664;9.166;2023-02-26T03:55:35;100884.41;;;-0.32;71.42
18755;BME280;35061;47.664;9.166;2023-02-26T03:58:05;100880.03;;;-0.36;71.09
18755;BME280;35061;47.664;9.166;2023-02-26T04:00:36;100886.51;;;-0.39;71.30
18755;BME280;35061;47.664;9.166;2023-02-26T04:05:47;100888.56;;;-0.47;70.65
18755;BME280;35061;47.664;9.166;2023-02-26T04:08:16;100899.03;;;-0.48;71.16
18755;BME280;35061;47.664;9.166;2023-02-26T04:10:58;100894.23;;;-0.51;70.85
18755;BME280;35061;47.664;9.166;2023-02-26T04:13:26;100890.59;;;-0.48;71.32
18755;BME280;35061;47.664;9.166;2023-02-26T04:15:54;100897.82;;;-0.47;71.32
18755;BME280;35061;47.664;9.166;2023-02-26T04:18:22;100895.01;;;-0.47;71.41
18755;BME280;35061;47.664;9.166;2023-02-26T04:20:50;100900.63;;;-0.47;71.49
18755;BME280;35061;47.664;9.166;2023-02-26T04:23:17;100906.29;;;-0.54;71.51
18755;BME280;35061;47.664;9.166;2023-02-26T04:25:45;100907.96;;;-0.57;71.83
18755;BME280;35061;47.664;9.166;2023-02-26T04:28:13;100916.79;;;-0.58;71.94
18755;BME280;35061;47.664;9.166;2023-02-26T04:30:41;100911.20;;;-0.62;72.20
18755;BME280;35061;47.664;9.166;2023-02-26T04:33:09;100923.26;;;-0.65;72.39
18755;BME280;35061;47.664;9.166;2023-02-26T04:35:37;100912.05;;;-0.68;72.22
18755;BME280;35061;47.664;9.166;2023-02-26T04:38:05;100913.65;;;-0.71;72.37
18755;BME280;35061;47.664;9.166;2023-02-26T04:40:33;100924.90;;;-0.71;72.59
18755;BME280;35061;47.664;9.166;2023-02-26T04:43:00;100934.18;;;-0.74;72.71
18755;BME280;35061;47.664;9.166;2023-02-26T04:45:28;100943.08;;;-0.79;75.51
18755;BME280;35061;47.664;9.166;2023-02-26T04:47:56;100949.59;;;-0.93;74.96
18755;BME280;35061;47.664;9.166;2023-02-26T04:50:23;100931.99;;;-1.12;75.89
18755;BME280;35061;47.664;9.166;2023-02-26T04:52:51;100942.09;;;-1.25;77.30
18755;BME280;35061;47.664;9.166;2023-02-26T04:55:19;100943.73;;;-1.39;78.77
18755;BME280;35061;47.664;9.166;2023-02-26T04:57:47;100938.17;;;-1.50;79.00
18755;BME280;35061;47.664;9.166;2023-02-26T05:00:15;100935.82;;;-1.59;79.64
18755;BME280;35061;47.664;9.166;2023-02-26T05:02:43;100944.65;;;-1.64;79.76
18755;BME280;35061;47.664;9.166;2023-02-26T05:05:11;100944.65;;;-1.67;79.47
18755;BME280;35061;47.664;9.166;2023-02-26T05:07:39;100943.05;;;-1.72;80.07
18755;BME280;35061;47.664;9.166;2023-02-26T05:10:07;100936.63;;;-1.76;80.88
18755;BME280;35061;47.664;9.166;2023-02-26T05:12:35;100944.26;;;-1.77;80.87
18755;BME280;35061;47.664;9.166;2023-02-26T05:15:04;100947.10;;;-1.80;80.40
18755;BME280;35061;47.664;9.166;2023-02-26T05:17:32;100951.91;;;-1.81;81.28
18755;BME280;35061;47.664;9.166;2023-02-26T05:20:00;100959.49;;;-1.78;80.78
18755;BME280;35061;47.664;9.166;2023-02-26T05:22:27;100959.10;;;-1.84;80.26
18755;BME280;35061;47.664;9.166;2023-02-26T05:24:55;100957.53;;;-1.88;80.36
18755;BME280;35061;47.664;9.166;2023-02-26T05:27:23;100969.56;;;-1.88;79.96
18755;BME280;35061;47.664;9.166;2023-02-26T05:29:51;100967.96;;;-1.92;80.21
18755;BME280;35061;47.664;9.166;2023-02-26T05:32:18;100965.97;;;-1.95;80.17
18755;BME280;35061;47.664;9.166;2023-02-26T05:34:46;100970.38;;;-1.94;80.66
18755;BME280;35061;47.664;9.166;2023-02-26T05:37:14;100967.57;;;-1.94;80.22
18755;BME280;35061;47.664;9.166;2023-02-26T05:39:41;100963.94;;;-1.95;80.83
18755;BME280;35061;47.664;9.166;2023-02-26T05:42:09;100963.94;;;-1.95;80.17
18755;BME280;35061;47.664;9.166;2023-02-26T05:44:37;100969.17;;;-1.93;80.11
18755;BME280;35061;47.664;9.166;2023-02-26T05:47:04;100968.35;;;-1.90;80.76
18755;BME280;35061;47.664;9.166;2023-02-26T05:49:32;100961.52;;;-1.89;80.07
18755;BME280;35061;47.664;9.166;2023-02-26T05:52:00;100970.77;;;-1.89;80.34
18755;BME280;35061;47.664;9.166;2023-02-26T05:54:28;100973.98;;;-1.83;80.18
18755;BME280;35061;47.664;9.166;2023-02-26T05:56:56;100971.16;;;-1.79;80.22
18755;BME280;35061;47.664;9.166;2023-02-26T05:59:24;100975.98;;;-1.76;80.16
18755;BME280;35061;47.664;9.166;2023-02-26T06:01:52;100980.36;;;-1.75;79.40
18755;BME280;35061;47.664;9.166;2023-02-26T06:04:19;100987.59;;;-1.71;79.65
18755;BME280;35061;47.664;9.166;2023-02-26T06:06:47;100989.19;;;-1.70;79.27
18755;BME280;35061;47.664;9.166;2023-02-26T06:09:15;100992.39;;;-1.67;79.25
18755;BME280;35061;47.664;9.166;2023-02-26T06:11:43;100978.36;;;-1.71;76.63
18755;BME280;35061;47.664;9.166;2023-02-26T06:14:11;100969.14;;;-1.68;76.98
18755;BME280;35061;47.664;9.166;2023-02-26T06:16:38;100979.54;;;-1.65;75.82
18755;BME280;35061;47.664;9.166;2023-02-26T06:19:06;100983.16;;;-1.64;73.68
18755;BME280;35061;47.664;9.166;2023-02-26T06:21:34;100987.16;;;-1.62;74.37
18755;BME280;35061;47.664;9.166;2023-02-26T06:24:02;100992.00;;;-1.62;74.35
18755;BME280;35061;47.664;9.166;2023-02-26T06:26:29;100997.20;;;-1.61;74.51
18755;BME280;35061;47.664;9.166;2023-02-26T06:28:57;100998.83;;;-1.63;73.41
18755;BME280;35061;47.664;9.166;2023-02-26T06:31:25;100994.81;;;-1.66;72.10
18755;BME280;35061;47.664;9.166;2023-02-26T06:33:53;101007.23;;;-1.67;71.37
18755;BME280;35061;47.664;9.166;2023-02-26T06:36:21;101008.84;;;-1.66;72.22
18755;BME280;35061;47.664;9.166;2023-02-26T06:38:49;101012.04;;;-1.67;72.18
18755;BME280;35061;47.664;9.166;2023-02-26T06:41:17;101025.71;;;-1.66;71.92
18755;BME280;35061;47.664;9.166;2023-02-26T06:43:45;101028.13;;;-1.64;72.31
18755;BME280;35061;47.664;9.166;2023-02-26T06:46:12;101010.44;;;-1.65;71.43
18755;BME280;35061;47.664;9.166;2023-02-26T06:48:40;101021.69;;;-1.65;71.71
18755;BME280;35061;47.664;9.166;2023-02-26T06:51:08;101018.88;;;-1.69;71.25
18755;BME280;35061;47.664;9.166;2023-02-26T06:53:36;101022.51;;;-1.72;71.03
18755;BME280;35061;47.664;9.166;2023-02-26T06:56:05;101017.70;;;-1.75;70.60
18755;BME280;35061;47.664;9.166;2023-02-26T06:58:33;101023.32;;;-1.75;70.17
18755;BME280;35061;47.664;9.166;2023-02-26T07:01:03;101028.13;;;-1.75;70.08
18755;BME280;35061;47.664;9.166;2023-02-26T07:03:31;101028.91;;;-1.78;69.71
18755;BME280;35061;47.664;9.166;2023-02-26T07:05:59;101028.91;;;-1.78;69.07
18755;BME280;35061;47.664;9.166;2023-02-26T07:08:46;101038.14;;;-1.82;69.12
18755;BME280;35061;47.664;9.166;2023-02-26T07:11:14;101042.98;;;-1.78;69.36
18755;BME280;35061;47.664;9.166;2023-02-26T07:13:42;101044.97;;;-1.79;68.57
18755;BME280;35061;47.664;9.166;2023-02-26T07:16:10;101054.20;;;-1.78;69.48
18755;BME280;35061;47.664;9.166;2023-02-26T07:18:38;101052.16;;;-1.78;69.57
18755;BME280;35061;47.664;9.166;2023-02-26T07:21:06;101056.19;;;-1.75;69.60
18755;BME280;35061;47.664;9.166;2023-02-26T07:23:34;101070.64;;;-1.73;69.64
18755;BME280;35061;47.664;9.166;2023-02-26T07:26:02;101069.86;;;-1.74;69.83
18755;BME280;35061;47.664;9.166;2023-02-26T07:28:29;101070.64;;;-1.77;70.42
18755;BME280;35061;47.664;9.166;2023-02-26T07:30:57;101072.24;;;-1.76;69.76
18755;BME280;35061;47.664;9.166;2023-02-26T07:33:25;101069.86;;;-1.77;69.34
18755;BME280;35061;47.664;9.166;2023-02-26T07:35:55;101083.46;;;-1.76;69.71
18755;BME280;35061;47.664;9.166;2023-02-26T07:38:22;101087.91;;;-1.75;69.64
18755;BME280;35061;47.664;9.166;2023-02-26T07:40:53;101092.32;;;-1.77;69.70
18755;BME280;35061;47.664;9.166;2023-02-26T07:43:22;101099.13;;;-1.78;69.00
18755;BME280;35061;47.664;9.166;2023-02-26T07:45:51;101103.54;;;-1.81;69.52
18755;BME280;35061;47.664;9.166;2023-02-26T07:48:20;101115.18;;;-1.83;69.11
18755;BME280;35061;47.664;9.166;2023-02-26T07:50:50;101108.34;;;-1.82;69.49
18755;BME280;35061;47.664;9.166;2023-02-26T07:53:19;101107.95;;;-1.80;69.65
18755;BME280;35061;47.664;9.166;2023-02-26T07:55:47;101111.98;;;-1.77;69.72
18755;BME280;35061;47.664;9.166;2023-02-26T07:58:16;101122.41;;;-1.78;69.19
18755;BME280;35061;47.664;9.166;2023-02-26T08:00:44;101124.83;;;-1.76;69.44
18755;BME280;35061;47.664;9.166;2023-02-26T08:03:12;101123.22;;;-1.74;69.62
18755;BME280;35061;47.664;9.166;2023-02-26T08:05:41;101120.38;;;-1.70;69.75
18755;BME280;35061;47.664;9.166;2023-02-26T08:08:09;101125.61;;;-1.61;69.42
18755;BME280;35061;47.664;9.166;2023-02-26T08:10:37;101117.99;;;-1.50;68.87
18755;BME280;35061;47.664;9.166;2023-02-26T08:13:07;101122.41;;;-1.42;68.87
18755;BME280;35061;47.664;9.166;2023-02-26T08:15:35;101117.96;;;-1.39;68.90
18755;BME280;35061;47.664;9.166;2023-02-26T08:18:03;101110.34;;;-1.38;67.51
18755;BME280;35061;47.664;9.166;2023-02-26T08:20:31;101113.15;;;-1.38;67.91
18755;BME280;35061;47.664;9.166;2023-02-26T08:22:58;101120.38;;;-1.34;67.23
18755;BME280;35061;47.664;9.166;2023-02-26T08:25:26;101111.52;;;-1.29;68.00
18755;BME280;35061;47.664;9.166;2023-02-26T08:27:54;101112.73;;;-1.26;67.67
18755;BME280;35061;47.664;9.166;2023-02-26T08:30:24;101117.96;;;-1.24;66.55
18755;BME280;35061;47.664;9.166;2023-02-26T08:32:51;101117.14;;;-1.14;67.66
18755;BME280;35061;47.664;9.166;2023-02-26T08:35:19;101111.52;;;-1.14;67.76
18755;BME280;35061;47.664;9.166;2023-02-26T08:37:47;101110.57;;;-0.64;67.50
18755;BME280;35061;47.664;9.166;2023-02-26T08:40:15;101114.20;;;-0.63;66.89
18755;BME280;35061;47.664;9.166;2023-02-26T08:42:43;101123.42;;;-0.66;66.41
18755;BME280;35061;47.664;9.166;2023-02-26T08:45:10;101115.73;;;-0.59;67.93
18755;BME280;35061;47.664;9.166;2023-02-26T08:47:38;101124.63;;;-0.67;63.69
18755;BME280;35061;47.664;9.166;2023-02-26T08:50:23;101120.21;;;-0.68;65.60
18755;BME280;35061;47.664;9.166;2023-02-26T08:52:51;101119.01;;;-0.67;66.00
18755;BME280;35061;47.664;9.166;2023-02-26T08:55:20;101132.31;;;-0.72;63.55
18755;BME280;35061;47.664;9.166;2023-02-26T08:57:48;101117.04;;;-0.78;63.48
18755;BME280;35061;47.664;9.166;2023-02-26T09:00:16;101120.28;;;-0.90;63.56
18755;BME280;35061;47.664;9.166;2023-02-26T09:02:45;101127.54;;;-0.93;64.02
18755;BME280;35061;47.664;9.166;2023-02-26T09:05:13;101127.15;;;-0.91;64.59
18755;BME280;35061;47.664;9.166;2023-02-26T09:07:42;101127.54;;;-0.96;64.32
18755;BME280;35061;47.664;9.166;2023-02-26T09:10:11;101130.77;;;-0.94;64.53
18755;BME280;35061;47.664;9.166;2023-02-26T09:12:39;101146.80;;;-0.88;64.57
18755;BME280;35061;47.664;9.166;2023-02-26T09:15:08;101143.62;;;-0.90;64.06
18755;BME280;35061;47.664;9.166;2023-02-26T09:17:37;101144.38;;;-0.82;63.88
18755;BME280;35061;47.664;9.166;2023-02-26T09:20:05;101133.91;;;-0.81;63.53
18755;BME280;35061;47.664;9.166;2023-02-26T09:22:34;101135.95;;;-0.78;62.93
18755;BME280;35061;47.664;9.166;2023-02-26T09:25:02;101144.38;;;-0.86;61.17
18755;BME280;35061;47.664;9.166;2023-02-26T09:27:31;101135.55;;;-0.84;61.57
18755;BME280;35061;47.664;9.166;2023-02-26T09:29:58;101144.38;;;-0.82;61.16
18755;BME280;35061;47.664;9.166;2023-02-26T09:32:26;101149.61;;;-0.84;61.39
18755;BME280;35061;47.664;9.166;2023-02-26T09:34:54;101144.77;;;-0.87;61.05
18755;BME280;35061;47.664;9.166;2023-02-26T09:37:22;101138.79;;;-0.89;62.10
18755;BME280;35061;47.664;9.166;2023-02-26T09:39:49;101156.84;;;-0.87;62.32
18755;BME280;35061;47.664;9.166;2023-02-26T09:42:40;101165.27;;;-0.83;62.18
18755;BME280;35061;47.664;9.166;2023-02-26T09:45:26;101166.88;;;-0.82;62.05
18755;BME280;35061;47.664;9.166;2023-02-26T09:47:57;101164.46;;;-0.80;62.46
18755;BME280;35061;47.664;9.166;2023-02-26T09:53:28;101159.62;;;-0.76;61.76
18755;BME280;35061;47.664;9.166;2023-02-26T09:56:02;101169.66;;;-0.75;61.60
18755;BME280;35061;47.664;9.166;2023-02-26T09:58:37;101172.47;;;-0.67;61.85
18755;BME280;35061;47.664;9.166;2023-02-26T10:10:06;101152.23;;;-0.33;60.14
18755;BME280;35061;47.664;9.166;2023-02-26T10:12:38;101146.96;;;-0.24;60.93
18755;BME280;35061;47.664;9.166;2023-02-26T10:15:20;101159.81;;;-0.19;60.29
18755;BME280;35061;47.664;9.166;2023-02-26T10:23:30;101145.59;;;0.06;60.65
18755;BME280;35061;47.664;9.166;2023-02-26T10:26:13;101136.37;;;0.02;59.81
18755;BME280;35061;47.664;9.166;2023-02-26T10:32:12;101152.85;;;0.04;60.52
18755;BME280;35061;47.664;9.166;2023-02-26T10:34:54;101154.52;;;-0.10;59.14
18755;BME280;35061;47.664;9.166;2023-02-26T10:48:37;101155.30;;;-0.06;59.29
18755;BME280;35061;47.664;9.166;2023-02-26T10:51:18;101163.73;;;-0.02;59.92
18755;BME280;35061;47.664;9.166;2023-02-26T10:53:52;101162.10;;;0.04;59.70
18755;BME280;35061;47.664;9.166;2023-02-26T10:56:40;101167.70;;;0.11;59.51
18755;BME280;35061;47.664;9.166;2023-02-26T10:59:07;101162.07;;;0.11;59.72
18755;BME280;35061;47.664;9.166;2023-02-26T11:01:35;101169.30;;;0.12;60.03
18755;BME280;35061;47.664;9.166;2023-02-26T11:04:16;101171.26;;;0.23;60.63
18755;BME280;35061;47.664;9.166;2023-02-26T11:06:53;101166.38;;;0.23;59.67
18755;BME280;35061;47.664;9.166;2023-02-26T11:09:28;101164.78;;;0.26;59.84
18755;BME280;35061;47.664;9.166;2023-02-26T11:12:12;101170.38;;;0.33;59.54
18755;BME280;35061;47.664;9.166;2023-02-26T11:14:45;101178.39;;;0.35;60.21
18755;BME280;35061;47.664;9.166;2023-02-26T11:17:19;101176.75;;;0.41;59.94
18755;BME280;35061;47.664;9.166;2023-02-26T11:19:56;101174.66;;;0.49;59.46
18755;BME280;35061;47.664;9.166;2023-02-26T11:22:27;101171.06;;;0.48;57.29
18755;BME280;35061;47.664;9.166;2023-02-26T11:24:56;101169.40;;;0.54;58.40
18755;BME280;35061;47.664;9.166;2023-02-26T11:27:29;101181.04;;;0.57;57.62
18755;BME280;35061;47.664;9.166;2023-02-26T11:30:04;101157.72;;;0.52;56.50
18755;BME280;35061;47.664;9.166;2023-02-26T11:32:35;101163.38;;;0.52;56.63
18755;BME280;35061;47.664;9.166;2023-02-26T11:35:06;101164.98;;;0.50;56.70
18755;BME280;35061;47.664;9.166;2023-02-26T11:37:38;101156.91;;;0.55;57.26
18755;BME280;35061;47.664;9.166;2023-02-26T11:40:16;101158.51;;;0.53;56.62
18755;BME280;35061;47.664;9.166;2023-02-26T11:42:57;101161.38;;;0.49;56.48
18755;BME280;35061;47.664;9.166;2023-02-26T11:45:25;101165.44;;;0.45;56.94
18755;BME280;35061;47.664;9.166;2023-02-26T11:48:03;101157.39;;;0.47;57.38
18755;BME280;35061;47.664;9.166;2023-02-26T11:50:41;101159.78;;;0.48;57.88
18755;BME280;35061;47.664;9.166;2023-02-26T11:53:19;101161.77;;;0.51;58.38
18755;BME280;35061;47.664;9.166;2023-02-26T11:55:59;101152.09;;;0.52;58.78
18755;BME280;35061;47.664;9.166;2023-02-26T11:58:33;101150.79;;;0.64;58.81
18755;BME280;35061;47.664;9.166;2023-02-26T12:01:03;101156.74;;;0.74;59.25
18755;BME280;35061;47.664;9.166;2023-02-26T12:03:36;101141.41;;;0.78;59.33
18755;BME280;35061;47.664;9.166;2023-02-26T12:06:16;101146.63;;;0.80;58.84
18755;BME280;35061;47.664;9.166;2023-02-26T12:08:44;101143.79;;;0.80;57.79
18755;BME280;35061;47.664;9.166;2023-02-26T12:33:33;101160.20;;;0.47;58.34
18755;BME280;35061;47.664;9.166;2023-02-26T12:44:17;101156.31;;;0.26;59.71
18755;BME280;35061;47.664;9.166;2023-02-26T12:49:53;101161.65;;;0.13;60.19
18755;BME280;35061;47.664;9.166;2023-02-26T13:20:24;101198.30;;;0.06;72.50
18755;BME280;35061;47.664;9.166;2023-02-26T13:22:59;101209.26;;;-0.15;74.27
18755;BME280;35061;47.664;9.166;2023-02-26T13:25:42;101199.67;;;-0.32;75.11
18755;BME280;35061;47.664;9.166;2023-02-26T13:31:22;101198.53;;;-0.41;75.80
18755;BME280;35061;47.664;9.166;2023-02-26T13:33:54;101182.80;;;-0.35;75.60
18755;BME280;35061;47.664;9.166;2023-02-26T13:36:24;101199.64;;;-0.21;74.25
18755;BME280;35061;47.664;9.166;2023-02-26T13:45:02;101183.49;;;-0.09;70.23
18755;BME280;35061;47.664;9.166;2023-02-26T13:55:52;101183.06;;;-0.01;67.07
18755;BME280;35061;47.664;9.166;2023-02-26T14:01:19;101178.16;;;0.07;65.71
18755;BME280;35061;47.664;9.166;2023-02-26T14:04:20;101179.37;;;0.06;65.75
18755;BME280;35061;47.664;9.166;2023-02-26T14:06:52;101181.43;;;0.06;64.87
18755;BME280;35061;47.664;9.166;2023-02-26T14:14:33;101177.77;;;0.12;64.43
18755;BME280;35061;47.664;9.166;2023-02-26T14:19:42;101174.07;;;0.23;63.82
18755;BME280;35061;47.664;9.166;2023-02-26T14:22:33;101172.83;;;0.27;63.69
18755;BME280;35061;47.664;9.166;2023-02-26T14:25:17;101163.05;;;0.39;64.11
18755;BME280;35061;47.664;9.166;2023-02-26T14:27:46;101156.61;;;0.43;65.06
18755;BME280;35061;47.664;9.166;2023-02-26T14:30:18;101169.43;;;0.47;64.12
18755;BME280;35061;47.664;9.166;2023-02-26T14:33:07;101169.04;;;0.49;62.98
18755;BME280;35061;47.664;9.166;2023-02-26T14:35:42;101166.16;;;0.56;63.62
18755;BME280;35061;47.664;9.166;2023-02-26T14:38:17;101179.01;;;0.61;62.47
18755;BME280;35061;47.664;9.166;2023-02-26T14:41:21;101171.36;;;0.61;61.92
18755;BME280;35061;47.664;9.166;2023-02-26T14:44:03;101166.95;;;0.57;60.30
18755;BME280;35061;47.664;9.166;2023-02-26T14:46:34;101174.98;;;0.62;61.60
18755;BME280;35061;47.664;9.166;2023-02-26T14:49:03;101172.57;;;0.60;61.32
18755;BME280;35061;47.664;9.166;2023-02-26T14:51:58;101172.57;;;0.60;60.94
18755;BME280;35061;47.664;9.166;2023-02-26T14:54:52;101180.64;;;0.58;60.46
18755;BME280;35061;47.664;9.166;2023-02-26T15:00:34;101176.98;;;0.61;61.41
18755;BME280;35061;47.664;9.166;2023-02-26T15:03:11;101174.98;;;0.62;61.83
18755;BME280;35061;47.664;9.166;2023-02-26T15:14:38;101176.27;;;0.53;63.72
18755;BME280;35061;47.664;9.166;2023-02-26T15:17:29;101204.91;;;0.48;63.87
18755;BME280;35061;47.664;9.166;2023-02-26T15:20:04;101202.09;;;0.45;64.26
18755;BME280;35061;47.664;9.166;2023-02-26T15:25:29;101210.59;;;0.37;64.95
18755;BME280;35061;47.664;9.166;2023-02-26T15:27:59;101225.90;;;0.36;64.95
18755;BME280;35061;47.664;9.166;2023-02-26T15:30:29;101224.69;;;0.37;65.46
18755;BME280;35061;47.664;9.166;2023-02-26T15:33:02;101233.13;;;0.37;65.39
18755;BME280;35061;47.664;9.166;2023-02-26T15:35:31;101230.67;;;0.43;65.64
18755;BME280;35061;47.664;9.166;2023-02-26T15:38:02;101244.38;;;0.45;66.66
18755;BME280;35061;47.664;9.166;2023-02-26T15:40:32;101242.35;;;0.45;66.26
18755;BME280;35061;47.664;9.166;2023-02-26T15:43:02;101264.48;;;0.43;66.75
18755;BME280;35061;47.664;9.166;2023-02-26T15:45:34;101261.71;;;0.36;67.94
18755;BME280;35061;47.664;9.166;2023-02-26T15:48:07;101264.59;;;0.29;68.96
18755;BME280;35061;47.664;9.166;2023-02-26T15:50:39;101284.73;;;0.23;69.99
18755;BME280;35061;47.664;9.166;2023-02-26T15:53:12;101273.52;;;0.16;70.69
18755;BME280;35061;47.664;9.166;2023-02-26T15:55:54;101283.59;;;0.17;70.41
18755;BME280;35061;47.664;9.166;2023-02-26T15:58:51;101272.73;;;0.08;71.57
18755;BME280;35061;47.664;9.166;2023-02-26T16:01:21;101293.66;;;0.04;72.03
18755;BME280;35061;47.664;9.166;2023-02-26T16:03:53;101287.64;;;-0.02;71.57
18755;BME280;35061;47.664;9.166;2023-02-26T16:06:26;101290.48;;;-0.02;72.24
18755;BME280;35061;47.664;9.166;2023-02-26T16:08:54;101264.75;;;-0.08;71.40
18755;BME280;35061;47.664;9.166;2023-02-26T16:11:23;101284.89;;;-0.09;70.64
18755;BME280;35061;47.664;9.166;2023-02-26T16:13:52;101274.04;;;-0.15;70.58
18755;BME280;35061;47.664;9.166;2023-02-26T16:16:26;101278.05;;;-0.19;70.80
18755;BME280;35061;47.664;9.166;2023-02-26T16:18:56;101270.83;;;-0.24;71.27
18755;BME280;35061;47.664;9.166;2023-02-26T16:23:56;101287.34;;;-0.26;70.54
18755;BME280;35061;47.664;9.166;2023-02-26T16:26:32;101287.34;;;-0.26;70.29
18755;BME280;35061;47.664;9.166;2023-02-26T16:29:05;101290.16;;;-0.26;70.36
18755;BME280;35061;47.664;9.166;2023-02-26T16:31:33;101294.18;;;-0.31;70.24
18755;BME280;35061;47.664;9.166;2023-02-26T16:34:21;101308.27;;;-0.31;70.44
18755;BME280;35061;47.664;9.166;2023-02-26T16:36:49;101317.10;;;-0.29;70.38
18755;BME280;35061;47.664;9.166;2023-02-26T16:39:30;101315.50;;;-0.30;71.23
18755;BME280;35061;47.664;9.166;2023-02-26T16:42:19;101311.48;;;-0.29;71.00
18755;BME280;35061;47.664;9.166;2023-02-26T16:44:56;101316.32;;;-0.29;70.83
18755;BME280;35061;47.664;9.166;2023-02-26T16:47:29;101301.83;;;-0.31;70.88